Time;durP1;ratioP1;P1;durP2;ratioP2;P2;SDS_P1;SDS_P2;PMS_P1;PMS_P2;Temp;Humidity;BMP_temperature;BMP_pressure;BME280_temperature;BME280_humidity;BME280_pressure;Samples;Min_cycle;Max_cycle;Signal;HPM_P1;HPM_P2
2022/05/12 00:00:01;;;;;;;;;;;24.60;38.30;;;;;;1568563;76;685;-68
2022/05/12 00:02:03;;;;;;;;;;;24.60;38.30;;;;;;1568508;76;681;-68
2022/05/12 00:04:05;;;;;;;;;;;24.60;38.30;;;;;;1544853;76;671;-68
2022/05/12 00:06:08;;;;;;;;;;;24.60;38.30;;;;;;1542123;76;1154;-67
2022/05/12 00:08:10;;;;;;;;;;;24.50;38.30;;;;;;1559388;74;760;-67
2022/05/12 00:10:13;;;;;;;;;;;24.60;38.30;;;;;;1567594;76;683;-67
2022/05/12 00:12:15;;;;;;;;;;;24.60;38.40;;;;;;1542168;77;667;-67
2022/05/12 00:14:17;;;;;;;;;;;24.60;38.40;;;;;;1571231;74;754;-65
2022/05/12 00:16:19;;;;;;;;;;;24.50;38.40;;;;;;1590787;73;1133;-67
2022/05/12 00:18:21;;;;;;;;;;;24.50;38.40;;;;;;1594096;74;1917;-67
2022/05/12 00:20:23;;;;;;;;;;;24.50;38.40;;;;;;1568110;76;659;-67
2022/05/12 00:22:24;;;;;;;;;;;24.50;38.40;;;;;;1578036;74;728;-67
2022/05/12 00:24:26;;;;;;;;;;;24.60;38.40;;;;;;1577595;74;771;-68
2022/05/12 00:26:29;;;;;;;;;;;24.60;38.40;;;;;;1568456;74;1135;-67
2022/05/12 00:28:31;;;;;;;;;;;24.50;38.40;;;;;;1568436;76;646;-67
2022/05/12 00:30:33;;;;;;;;;;;24.60;38.40;;;;;;1573178;74;780;-67
2022/05/12 00:32:39;;;;;;;;;;;24.60;38.40;;;;;;1567822;74;710;-66
2022/05/12 00:34:41;;;;;;;;;;;24.60;38.40;;;;;;1568469;76;656;-67
2022/05/12 00:36:43;;;;;;;;;;;24.50;38.50;;;;;;1570043;74;1143;-67
2022/05/12 00:38:45;;;;;;;;;;;24.60;38.50;;;;;;1564636;74;1970;-67
2022/05/12 00:40:47;;;;;;;;;;;24.50;38.50;;;;;;1562894;74;1698;-67
2022/05/12 00:42:53;;;;;;;;;;;24.60;38.60;;;;;;1564963;74;665;-67
2022/05/12 00:44:54;;;;;;;;;;;24.50;38.50;;;;;;1562517;76;833;-67
2022/05/12 00:46:56;;;;;;;;;;;24.60;38.60;;;;;;1566539;74;1116;-68
2022/05/12 00:48:59;;;;;;;;;;;24.50;38.60;;;;;;1590996;74;786;-67
2022/05/12 00:51:01;;;;;;;;;;;24.60;38.50;;;;;;1569927;74;620;-67
2022/05/12 00:53:04;;;;;;;;;;;24.50;38.60;;;;;;1568143;74;753;-67
2022/05/12 00:55:06;;;;;;;;;;;24.60;38.60;;;;;;1569119;76;692;-66
2022/05/12 00:57:09;;;;;;;;;;;24.60;38.60;;;;;;1569617;74;1099;-66
2022/05/12 00:59:12;;;;;;;;;;;24.50;38.50;;;;;;1568375;76;1932;-67
2022/05/12 01:01:14;;;;;;;;;;;24.50;38.50;;;;;;1536549;77;1265;-66
2022/05/12 01:03:17;;;;;;;;;;;24.60;38.50;;;;;;1557251;74;627;-66
2022/05/12 01:05:19;;;;;;;;;;;24.50;38.50;;;;;;1574786;74;1805;-67
2022/05/12 01:07:21;;;;;;;;;;;24.60;38.60;;;;;;1581315;73;1110;-67
2022/05/12 01:09:23;;;;;;;;;;;24.50;38.50;;;;;;1596273;74;651;-67
2022/05/12 01:11:25;;;;;;;;;;;24.50;38.50;;;;;;1598872;74;658;-67
2022/05/12 01:13:29;;;;;;;;;;;24.50;38.50;;;;;;1598728;74;618;-67
2022/05/12 01:15:31;;;;;;;;;;;24.50;38.60;;;;;;1591221;74;730;-67
2022/05/12 01:17:33;;;;;;;;;;;24.50;38.60;;;;;;1580387;73;1168;-67
2022/05/12 01:19:36;;;;;;;;;;;24.50;38.60;;;;;;1563307;74;1948;-67
2022/05/12 01:21:38;;;;;;;;;;;24.50;38.60;;;;;;1568475;76;697;-67
2022/05/12 01:23:41;;;;;;;;;;;24.50;38.60;;;;;;1569037;76;743;-67
2022/05/12 01:25:43;;;;;;;;;;;24.50;38.70;;;;;;1586342;74;1130;-67
2022/05/12 01:27:45;;;;;;;;;;;24.50;38.70;;;;;;1568116;76;688;-67
2022/05/12 01:29:51;;;;;;;;;;;24.50;38.60;;;;;;1568425;76;772;-66
2022/05/12 01:31:53;;;;;;;;;;;24.50;38.60;;;;;;1568334;76;642;-66
2022/05/12 01:33:55;;;;;;;;;;;24.50;38.70;;;;;;1568647;74;803;-67
2022/05/12 01:35:57;;;;;;;;;;;24.50;38.70;;;;;;1568811;74;1099;-65
2022/05/12 01:37:59;;;;;;;;;;;24.50;38.70;;;;;;1567050;74;1676;-66
2022/05/12 01:40:00;;;;;;;;;;;24.50;38.70;;;;;;1562310;74;1934;-67
2022/05/12 01:42:03;;;;;;;;;;;24.50;38.70;;;;;;1585386;74;681;-65
2022/05/12 01:44:05;;;;;;;;;;;24.50;38.70;;;;;;1595749;74;710;-66
2022/05/12 01:46:07;;;;;;;;;;;24.50;38.70;;;;;;1595767;73;1157;-66
2022/05/12 01:48:09;;;;;;;;;;;24.50;38.80;;;;;;1562299;71;2137;-66
2022/05/12 01:50:13;;;;;;;;;;;24.50;38.90;;;;;;1561604;75;714;-68
2022/05/12 01:52:15;;;;;;;;;;;24.50;38.90;;;;;;1573754;75;670;-67
2022/05/12 01:54:16;;;;;;;;;;;24.40;38.80;;;;;;1573642;75;675;-66
2022/05/12 01:56:18;;;;;;;;;;;24.40;38.80;;;;;;1557808;75;654;-66
2022/05/12 01:58:21;;;;;;;;;;;24.50;38.90;;;;;;1525831;77;1166;-67
2022/05/12 02:00:23;;;;;;;;;;;24.50;38.90;;;;;;1525693;78;1907;-67
2022/05/12 02:02:27;;;;;;;;;;;24.50;38.90;;;;;;1553803;75;721;-66
2022/05/12 02:04:29;;;;;;;;;;;24.40;38.80;;;;;;1556952;75;672;-67
2022/05/12 02:06:31;;;;;;;;;;;24.50;38.90;;;;;;1564037;75;655;-68
2022/05/12 02:08:32;;;;;;;;;;;24.50;38.90;;;;;;1563889;75;1176;-66
2022/05/12 02:10:38;;;;;;;;;;;24.50;38.90;;;;;;1563926;76;651;-67
2022/05/12 02:12:40;;;;;;;;;;;24.50;38.90;;;;;;1556967;76;695;-66
2022/05/12 02:14:42;;;;;;;;;;;24.50;38.90;;;;;;1532056;76;728;-66
2022/05/12 02:16:44;;;;;;;;;;;24.40;38.90;;;;;;1557401;74;1159;-67
2022/05/12 02:18:46;;;;;;;;;;;24.40;38.90;;;;;;1565475;75;1946;-68
2022/05/12 02:20:48;;;;;;;;;;;24.50;38.90;;;;;;1551415;76;688;-67
2022/05/12 02:22:50;;;;;;;;;;;24.50;38.90;;;;;;1526769;76;685;-67
2022/05/12 02:24:51;;;;;;;;;;;24.50;38.90;;;;;;1530794;77;674;-69
2022/05/12 02:26:55;;;;;;;;;;;24.50;39.00;;;;;;1531924;76;1178;-68
2022/05/12 02:28:57;;;;;;;;;;;24.50;38.90;;;;;;1538540;75;1937;-69
2022/05/12 02:30:59;;;;;;;;;;;24.50;39.00;;;;;;1567400;75;703;-69
2022/05/12 02:33:01;;;;;;;;;;;24.40;38.90;;;;;;1554332;75;691;-69
2022/05/12 02:35:02;;;;;;;;;;;24.50;39.10;;;;;;1551964;75;734;-69
2022/05/12 02:37:05;;;;;;;;;;;24.40;39.10;;;;;;1544846;76;1190;-69
2022/05/12 02:39:06;;;;;;;;;;;24.40;39.10;;;;;;1543522;77;1927;-69
2022/05/12 02:41:08;;;;;;;;;;;24.40;39.20;;;;;;1546366;76;681;-69
2022/05/12 02:43:25;;;;;;;;;;;24.50;39.30;;;;;;1551590;75;648;-69
2022/05/12 02:45:27;;;;;;;;;;;24.40;39.30;;;;;;1561675;75;614;-68
2022/05/12 02:47:29;;;;;;;;;;;24.40;39.40;;;;;;1562935;75;1186;-69
2022/05/12 02:49:31;;;;;;;;;;;24.40;39.40;;;;;;1569820;75;656;-68
2022/05/12 02:51:33;;;;;;;;;;;24.40;39.50;;;;;;1564021;76;733;-67
2022/05/12 02:53:35;;;;;;;;;;;24.40;39.50;;;;;;1550446;75;578;-68
2022/05/12 02:55:37;;;;;;;;;;;24.40;39.50;;;;;;1548756;75;696;-68
2022/05/12 02:57:39;;;;;;;;;;;24.40;39.60;;;;;;1552784;75;1157;-67
2022/05/12 02:59:41;;;;;;;;;;;24.40;39.70;;;;;;1541226;75;1946;-69
2022/05/12 03:01:43;;;;;;;;;;;24.40;39.70;;;;;;1575936;75;658;-70
2022/05/12 03:03:45;;;;;;;;;;;24.50;39.90;;;;;;1554741;75;672;-69
2022/05/12 03:05:47;;;;;;;;;;;24.50;39.90;;;;;;1541592;77;680;-68
2022/05/12 03:07:49;;;;;;;;;;;24.50;39.90;;;;;;1541498;76;1153;-69
2022/05/12 03:09:50;;;;;;;;;;;24.40;39.90;;;;;;1541785;77;641;-69
2022/05/12 03:11:52;;;;;;;;;;;24.50;40.00;;;;;;1546008;75;694;-69
2022/05/12 03:13:54;;;;;;;;;;;24.50;40.00;;;;;;1545483;75;743;-70
2022/05/12 03:15:56;;;;;;;;;;;24.40;39.90;;;;;;1558487;75;670;-71
2022/05/12 03:17:58;;;;;;;;;;;24.50;40.00;;;;;;1543655;76;1138;-69
2022/05/12 03:20:00;;;;;;;;;;;24.50;40.00;;;;;;1547848;76;1943;-70
2022/05/12 03:22:02;;;;;;;;;;;24.40;40.00;;;;;;1551139;76;670;-70
2022/05/12 03:24:04;;;;;;;;;;;24.50;40.00;;;;;;1548037;76;656;-70
2022/05/12 03:26:06;;;;;;;;;;;24.50;40.10;;;;;;1552855;75;648;-70
2022/05/12 03:28:08;;;;;;;;;;;24.50;40.10;;;;;;1575063;74;1151;-70
2022/05/12 03:30:11;;;;;;;;;;;24.40;40.10;;;;;;1562455;75;1442;-70
2022/05/12 03:32:13;;;;;;;;;;;24.40;40.10;;;;;;1545041;76;749;-70
2022/05/12 03:34:15;;;;;;;;;;;24.50;40.20;;;;;;1551031;76;540;-71
2022/05/12 03:36:17;;;;;;;;;;;24.40;40.10;;;;;;1551745;76;626;-70
2022/05/12 03:38:19;;;;;;;;;;;24.50;40.20;;;;;;1551650;75;1128;-69
2022/05/12 03:40:21;;;;;;;;;;;24.40;40.20;;;;;;1560117;75;1936;-70
2022/05/12 03:42:23;;;;;;;;;;;24.50;40.30;;;;;;1556000;75;674;-70
2022/05/12 03:46:45;;;;;;;;;;;24.50;40.30;;;;;;1554220;75;1156;-71
2022/05/12 03:48:47;;;;;;;;;;;24.30;40.20;;;;;;1554117;76;773;-68
2022/05/12 03:50:48;;;;;;;;;;;24.40;40.30;;;;;;1552501;76;728;-68
2022/05/12 03:52:51;;;;;;;;;;;24.50;40.30;;;;;;1551370;75;713;-69
2022/05/12 03:54:53;;;;;;;;;;;24.30;40.30;;;;;;1560843;75;774;-69
2022/05/12 03:56:54;;;;;;;;;;;24.50;40.40;;;;;;1525732;76;1208;-68
2022/05/12 03:58:56;;;;;;;;;;;24.30;40.30;;;;;;1528053;76;635;-71
2022/05/12 04:00:59;;;;;;;;;;;24.40;40.40;;;;;;1551692;76;1909;-68
2022/05/12 04:03:01;;;;;;;;;;;24.40;40.40;;;;;;1551428;76;640;-69
2022/05/12 04:05:04;;;;;;;;;;;24.40;40.40;;;;;;1542751;76;754;-68
2022/05/12 04:07:06;;;;;;;;;;;24.30;40.40;;;;;;1541910;76;1152;-68
2022/05/12 04:09:08;;;;;;;;;;;24.40;40.40;;;;;;1541755;76;700;-68
2022/05/12 04:11:10;;;;;;;;;;;24.30;40.50;;;;;;1543588;76;682;-68
2022/05/12 04:13:11;;;;;;;;;;;24.30;40.50;;;;;;1546856;76;732;-68
2022/05/12 04:15:18;;;;;;;;;;;24.50;40.60;;;;;;1537924;77;711;-69
2022/05/12 04:17:17;;;;;;;;;;;24.40;40.50;;;;;;1541338;76;1169;-68
2022/05/12 04:19:19;;;;;;;;;;;24.30;40.60;;;;;;1547670;76;699;-68
2022/05/12 04:21:21;;;;;;;;;;;24.40;40.60;;;;;;1551510;76;1951;-67
2022/05/12 04:23:23;;;;;;;;;;;24.40;40.60;;;;;;1549463;76;682;-69
2022/05/12 04:25:25;;;;;;;;;;;24.40;40.70;;;;;;1531903;77;910;-69
2022/05/12 04:27:27;;;;;;;;;;;24.30;40.70;;;;;;1541651;75;1586;-69
2022/05/12 04:29:29;;;;;;;;;;;24.30;40.70;;;;;;1547027;76;679;-69
2022/05/12 04:31:31;;;;;;;;;;;24.40;40.70;;;;;;1549930;75;721;-69
2022/05/12 04:35:52;;;;;;;;;;;24.40;40.70;;;;;;1573819;75;1662;-68
2022/05/12 04:37:56;;;;;;;;;;;24.40;40.90;;;;;;1573851;74;1159;-68
2022/05/12 04:40:05;;;;;;;;;;;24.40;41.00;;;;;;1573788;75;1899;-69
2022/05/12 04:42:07;;;;;;;;;;;24.40;40.90;;;;;;1558908;75;785;-69
2022/05/12 04:44:09;;;;;;;;;;;24.30;40.80;;;;;;1551629;75;667;-68
2022/05/12 04:46:11;;;;;;;;;;;24.40;40.80;;;;;;1564224;75;624;-70
2022/05/12 04:48:13;;;;;;;;;;;24.30;40.60;;;;;;1572185;74;1128;-69
2022/05/12 04:50:16;;;;;;;;;;;24.30;40.50;;;;;;1563785;75;727;-69
2022/05/12 04:52:18;;;;;;;;;;;24.30;40.50;;;;;;1551633;76;714;-70
2022/05/12 04:54:21;;;;;;;;;;;24.30;40.50;;;;;;1551598;76;638;-68
2022/05/12 04:56:23;;;;;;;;;;;24.30;40.40;;;;;;1551422;76;702;-68
2022/05/12 04:58:26;;;;;;;;;;;24.30;40.40;;;;;;1551590;75;1143;-69
2022/05/12 05:00:29;;;;;;;;;;;24.30;40.30;;;;;;1562710;75;1901;-69
2022/05/12 05:02:31;;;;;;;;;;;24.30;40.30;;;;;;1568712;75;998;-69
2022/05/12 05:04:33;;;;;;;;;;;24.20;40.20;;;;;;1546664;76;655;-70
2022/05/12 05:06:35;;;;;;;;;;;24.30;40.20;;;;;;1560808;74;1168;-67
2022/05/12 05:08:37;;;;;;;;;;;24.20;40.00;;;;;;1559394;75;683;-69
2022/05/12 05:10:38;;;;;;;;;;;24.30;40.20;;;;;;1563854;76;724;-68
2022/05/12 05:12:42;;;;;;;;;;;24.30;40.20;;;;;;1556202;75;642;-69
2022/05/12 05:14:44;;;;;;;;;;;24.30;40.20;;;;;;1550069;77;778;-69
2022/05/12 05:16:46;;;;;;;;;;;24.40;40.20;;;;;;1543905;76;1106;-69
2022/05/12 05:18:48;;;;;;;;;;;24.50;40.20;;;;;;1546427;76;693;-69
2022/05/12 05:20:50;;;;;;;;;;;24.50;40.20;;;;;;1551607;76;1931;-69
2022/05/12 05:22:52;;;;;;;;;;;24.40;40.10;;;;;;1562163;75;1527;-69
2022/05/12 05:24:54;;;;;;;;;;;24.40;40.10;;;;;;1543151;77;677;-68
2022/05/12 05:26:56;;;;;;;;;;;24.30;40.10;;;;;;1550846;75;1201;-69
2022/05/12 05:28:58;;;;;;;;;;;24.30;40.10;;;;;;1551643;76;661;-69
2022/05/12 05:31:00;;;;;;;;;;;24.30;40.10;;;;;;1551743;76;672;-68
2022/05/12 05:33:01;;;;;;;;;;;24.30;40.10;;;;;;1541149;76;689;-69
2022/05/12 05:35:04;;;;;;;;;;;24.30;40.10;;;;;;1551672;76;638;-69
2022/05/12 05:37:06;;;;;;;;;;;24.20;39.90;;;;;;1554152;75;1244;-69
2022/05/12 05:39:08;;;;;;;;;;;24.20;40.00;;;;;;1571812;75;581;-70
2022/05/12 05:41:09;;;;;;;;;;;24.20;39.90;;;;;;1571466;75;1942;-68
2022/05/12 05:43:11;;;;;;;;;;;24.20;39.90;;;;;;1554679;75;661;-68
2022/05/12 05:45:15;;;;;;;;;;;24.20;40.00;;;;;;1566775;75;529;-67
2022/05/12 05:47:17;;;;;;;;;;;24.30;40.00;;;;;;1544062;75;1126;-70
2022/05/12 05:49:19;;;;;;;;;;;24.20;39.90;;;;;;1541689;76;764;-70
2022/05/12 05:53:41;;;;;;;;;;;24.20;39.80;;;;;;1573746;75;1622;-68
2022/05/12 05:55:43;;;;;;;;;;;24.20;39.80;;;;;;1570367;75;736;-68
2022/05/12 05:57:45;;;;;;;;;;;24.20;39.80;;;;;;1554165;75;1192;-68
2022/05/12 05:59:48;;;;;;;;;;;24.10;39.70;;;;;;1552200;75;660;-69
2022/05/12 06:01:50;;;;;;;;;;;24.20;39.70;;;;;;1548088;77;1927;-69
2022/05/12 06:03:53;;;;;;;;;;;24.20;39.70;;;;;;1548702;76;593;-68
2022/05/12 06:05:56;;;;;;;;;;;24.20;39.70;;;;;;1543414;77;549;-68
2022/05/12 06:07:57;;;;;;;;;;;24.10;39.70;;;;;;1550680;75;1157;-71
2022/05/12 06:09:59;;;;;;;;;;;24.20;39.70;;;;;;1575343;75;543;-69
2022/05/12 06:12:01;;;;;;;;;;;24.10;39.70;;;;;;1573229;75;557;-68
2022/05/12 06:14:03;;;;;;;;;;;24.10;39.70;;;;;;1542767;75;730;-67
2022/05/12 06:16:05;;;;;;;;;;;24.10;39.70;;;;;;1546631;75;578;-67
2022/05/12 06:18:07;;;;;;;;;;;24.20;39.50;;;;;;1558166;75;1141;-67
2022/05/12 06:20:13;;;;;;;;;;;24.20;39.40;;;;;;1543430;75;1928;-67
2022/05/12 06:22:14;;;;;;;;;;;24.20;39.20;;;;;;1553576;75;628;-67
2022/05/12 06:24:16;;;;;;;;;;;24.20;38.80;;;;;;1562126;75;605;-67
2022/05/12 06:26:20;;;;;;;;;;;24.20;38.80;;;;;;1566748;75;700;-66
2022/05/12 06:28:22;;;;;;;;;;;24.10;38.70;;;;;;1563351;74;1849;-67
2022/05/12 06:30:24;;;;;;;;;;;24.20;38.80;;;;;;1556146;75;608;-67
2022/05/12 06:32:26;;;;;;;;;;;24.20;38.50;;;;;;1553572;75;723;-66
2022/05/12 06:34:28;;;;;;;;;;;24.10;38.50;;;;;;1558334;75;656;-67
2022/05/12 06:36:30;;;;;;;;;;;24.10;38.30;;;;;;1570212;75;674;-66
2022/05/12 06:38:34;;;;;;;;;;;24.00;38.40;;;;;;1571100;74;1135;-68
2022/05/12 06:40:36;;;;;;;;;;;24.10;38.30;;;;;;1567133;75;1915;-67
2022/05/12 06:42:41;;;;;;;;;;;24.20;38.70;;;;;;1565390;75;656;-69
2022/05/12 06:44:42;;;;;;;;;;;24.10;38.20;;;;;;1562774;75;1615;-67
2022/05/12 06:46:44;;;;;;;;;;;24.10;38.20;;;;;;1557410;75;1144;-64
2022/05/12 06:48:47;;;;;;;;;;;24.00;38.10;;;;;;1563826;75;741;-67
2022/05/12 06:50:49;;;;;;;;;;;24.10;38.20;;;;;;1555578;75;807;-67
2022/05/12 06:52:52;;;;;;;;;;;24.00;37.80;;;;;;1553201;75;655;-66
2022/05/12 06:54:53;;;;;;;;;;;24.10;38.10;;;;;;1558354;75;715;-68
2022/05/12 06:56:55;;;;;;;;;;;24.10;38.10;;;;;;1562152;74;1190;-66
2022/05/12 06:58:57;;;;;;;;;;;24.00;37.90;;;;;;1571717;75;695;-69
2022/05/12 07:01:00;;;;;;;;;;;24.00;38.10;;;;;;1566682;75;1937;-66
2022/05/12 07:03:02;;;;;;;;;;;24.00;37.90;;;;;;1558936;75;688;-67
2022/05/12 07:05:04;;;;;;;;;;;24.10;37.90;;;;;;1556625;75;694;-67
2022/05/12 07:07:06;;;;;;;;;;;24.10;37.90;;;;;;1564381;75;1144;-66
2022/05/12 07:09:08;;;;;;;;;;;24.10;37.90;;;;;;1563547;75;616;-67
2022/05/12 07:11:10;;;;;;;;;;;24.10;37.50;;;;;;1563939;75;680;-66
2022/05/12 07:13:18;;;;;;;;;;;24.10;36.30;;;;;;1554469;75;646;-68
2022/05/12 07:15:15;;;;;;;;;;;24.10;37.70;;;;;;1551628;75;1553;-67
2022/05/12 07:17:21;;;;;;;;;;;24.20;37.60;;;;;;1553179;75;1164;-69
2022/05/12 07:19:22;;;;;;;;;;;24.20;37.60;;;;;;1559867;75;703;-67
2022/05/12 07:28:25;;;;;;;;;;;24.20;37.60;;;;;;1556920;75;1666;-66
2022/05/12 07:31:00;;;;;;;;;;;24.30;37.90;;;;;;1555204;75;819;-66
2022/05/12 07:32:31;;;;;;;;;;;24.40;37.70;;;;;;1552821;75;1411;-68
2022/05/12 07:34:33;;;;;;;;;;;24.30;37.60;;;;;;1555640;75;731;-67
2022/05/12 07:36:36;;;;;;;;;;;24.40;37.60;;;;;;1554497;75;678;-66
2022/05/12 07:38:38;;;;;;;;;;;24.40;37.80;;;;;;1564932;75;737;-69
2022/05/12 07:40:40;;;;;;;;;;;24.30;37.60;;;;;;1558442;75;1935;-66
2022/05/12 07:42:41;;;;;;;;;;;24.40;37.50;;;;;;1563140;75;496;-68
2022/05/12 07:44:43;;;;;;;;;;;24.40;37.60;;;;;;1573928;75;639;-68
2022/05/12 07:46:45;;;;;;;;;;;24.50;37.60;;;;;;1567493;74;1203;-67
2022/05/12 07:48:48;;;;;;;;;;;24.50;37.50;;;;;;1596995;72;3010;-70
2022/05/12 07:50:50;;;;;;;;;;;24.50;37.50;;;;;;1636827;71;759;-71
2022/05/12 07:52:51;;;;;;;;;;;24.60;37.30;;;;;;1632579;72;692;-70
2022/05/12 07:54:53;;;;;;;;;;;24.60;37.30;;;;;;1631298;72;731;-69
2022/05/12 07:56:55;;;;;;;;;;;24.60;37.00;;;;;;1631138;73;746;-70
2022/05/12 07:58:57;;;;;;;;;;;24.70;37.10;;;;;;1615271;71;1179;-71
2022/05/12 08:00:59;;;;;;;;;;;24.70;37.20;;;;;;1610042;72;1910;-70
2022/05/12 08:03:01;;;;;;;;;;;24.80;37.10;;;;;;1608425;73;670;-70
2022/05/12 08:05:04;;;;;;;;;;;24.80;37.00;;;;;;1614423;72;739;-72
2022/05/12 08:07:06;;;;;;;;;;;24.80;36.70;;;;;;1616370;73;799;-69
2022/05/12 08:09:08;;;;;;;;;;;24.80;36.70;;;;;;1624743;72;1110;-70
2022/05/12 08:11:10;;;;;;;;;;;24.80;36.80;;;;;;1608522;72;1348;-70
2022/05/12 08:13:16;;;;;;;;;;;25.00;36.80;;;;;;1622564;72;668;-69
2022/05/12 08:15:18;;;;;;;;;;;25.00;36.80;;;;;;1613186;72;678;-72
2022/05/12 08:17:20;;;;;;;;;;;24.80;36.80;;;;;;1609528;73;724;-71
2022/05/12 08:19:22;;;;;;;;;;;25.00;36.90;;;;;;1624583;72;725;-70
2022/05/12 08:21:24;;;;;;;;;;;24.90;36.50;;;;;;1621677;71;1899;-72
2022/05/12 08:23:26;;;;;;;;;;;24.90;37.00;;;;;;1603593;72;703;-70
2022/05/12 08:25:29;;;;;;;;;;;24.80;36.40;;;;;;1630312;72;700;-70
2022/05/12 08:27:31;;;;;;;;;;;24.90;36.80;;;;;;1616119;72;1178;-70
2022/05/12 08:29:33;;;;;;;;;;;24.90;36.60;;;;;;1608995;72;737;-70
2022/05/12 08:31:35;;;;;;;;;;;25.00;36.80;;;;;;1603381;72;685;-70
2022/05/12 08:33:37;;;;;;;;;;;25.00;36.70;;;;;;1605718;72;672;-70
2022/05/12 08:35:39;;;;;;;;;;;25.00;36.60;;;;;;1607575;72;809;-70
2022/05/12 08:37:41;;;;;;;;;;;25.10;36.50;;;;;;1633509;72;1160;-69
2022/05/12 08:39:44;;;;;;;;;;;25.10;36.30;;;;;;1604951;72;745;-70
2022/05/12 08:41:51;;;;;;;;;;;25.20;36.30;;;;;;1621286;72;1915;-71
2022/05/12 08:43:54;;;;;;;;;;;25.10;36.30;;;;;;1611079;72;695;-70
2022/05/12 08:45:58;;;;;;;;;;;25.20;36.30;;;;;;1613014;72;726;-70
2022/05/12 08:48:00;;;;;;;;;;;25.20;36.40;;;;;;1606511;72;1102;-69
2022/05/12 08:50:02;;;;;;;;;;;25.20;36.40;;;;;;1602683;73;790;-69
2022/05/12 08:52:12;;;;;;;;;;;25.20;36.30;;;;;;1626789;72;649;-69
2022/05/12 08:54:14;;;;;;;;;;;25.30;36.20;;;;;;1618455;71;1073;-70
2022/05/12 08:56:17;;;;;;;;;;;25.20;36.30;;;;;;1634717;71;801;-70
2022/05/12 08:58:23;;;;;;;;;;;25.20;36.30;;;;;;1629852;71;1157;-70
2022/05/12 09:00:25;;;;;;;;;;;25.20;36.20;;;;;;1621890;72;716;-69
2022/05/12 09:02:29;;;;;;;;;;;25.20;36.30;;;;;;1621369;71;1939;-71
2022/05/12 09:04:32;;;;;;;;;;;25.10;36.20;;;;;;1637572;71;745;-70
2022/05/12 09:06:36;;;;;;;;;;;25.20;36.30;;;;;;1633092;71;1577;-70
2022/05/12 09:08:40;;;;;;;;;;;25.20;36.30;;;;;;1619876;71;1430;-72
2022/05/12 09:10:43;;;;;;;;;;;25.20;36.40;;;;;;1630329;72;1922;-71
2022/05/12 09:12:47;;;;;;;;;;;25.20;36.40;;;;;;1632432;73;1718;-70
2022/05/12 09:15:04;;;;;;;;;;;25.10;36.20;;;;;;1608213;71;703;-69
2022/05/12 09:17:06;;;;;;;;;;;25.10;36.20;;;;;;1634851;71;743;-72
2022/05/12 09:19:08;;;;;;;;;;;25.10;36.20;;;;;;1633288;72;1125;-70
2022/05/12 09:21:12;;;;;;;;;;;25.20;36.10;;;;;;1626928;72;1925;-69
2022/05/12 09:23:14;;;;;;;;;;;25.20;36.20;;;;;;1615865;72;1829;-69
2022/05/12 09:25:29;;;;;;;;;;;25.10;36.30;;;;;;1608838;72;546;-69
2022/05/12 09:27:32;;;;;;;;;;;25.00;36.30;;;;;;1626787;71;1161;-69
2022/05/12 09:29:36;;;;;;;;;;;25.00;36.40;;;;;;1623231;71;686;-69
2022/05/12 09:31:38;;;;;;;;;;;25.00;36.30;;;;;;1628251;72;1133;-70
2022/05/12 09:33:40;;;;;;;;;;;24.90;36.30;;;;;;1621072;71;622;-69
2022/05/12 09:35:42;;;;;;;;;;;25.00;36.50;;;;;;1617891;72;772;-71
2022/05/12 09:37:44;;;;;;;;;;;24.90;36.00;;;;;;1592986;74;1189;-68
2022/05/12 09:39:50;;;;;;;;;;;24.90;36.40;;;;;;1631584;71;667;-68
2022/05/12 09:41:52;;;;;;;;;;;24.90;36.50;;;;;;1633538;71;1920;-68
2022/05/12 09:43:54;;;;;;;;;;;24.90;36.40;;;;;;1633878;71;675;-68
2022/05/12 09:46:04;;;;;;;;;;;24.90;36.30;;;;;;1630753;72;743;-67
2022/05/12 09:48:13;;;;;;;;;;;24.70;36.30;;;;;;1621692;72;1171;-67
2022/05/12 09:50:16;;;;;;;;;;;24.80;36.30;;;;;;1623264;72;1108;-68
2022/05/12 09:52:26;;;;;;;;;;;24.80;36.30;;;;;;1627417;72;683;-68
2022/05/12 09:54:29;;;;;;;;;;;24.80;36.40;;;;;;1624810;73;665;-67
2022/05/12 09:56:31;;;;;;;;;;;24.80;36.50;;;;;;1632638;71;653;-67
2022/05/12 09:58:35;;;;;;;;;;;24.80;36.40;;;;;;1623403;71;1179;-67
2022/05/12 10:00:38;;;;;;;;;;;24.80;36.40;;;;;;1630588;72;707;-68
2022/05/12 10:09:43;;;;;;;;;;;24.80;36.30;;;;;;1629947;72;1671;-67
2022/05/12 10:12:02;;;;;;;;;;;24.90;36.40;;;;;;1610625;72;1859;-67
2022/05/12 10:14:04;;;;;;;;;;;24.80;36.50;;;;;;1633394;71;702;-67
2022/05/12 10:16:07;;;;;;;;;;;24.80;36.40;;;;;;1629014;71;744;-67
2022/05/12 10:18:11;;;;;;;;;;;24.90;36.50;;;;;;1617451;72;1132;-68
2022/05/12 10:20:18;;;;;;;;;;;25.00;36.60;;;;;;1633429;72;717;-68
2022/05/12 10:22:22;;;;;;;;;;;24.90;36.60;;;;;;1617652;72;1903;-67
2022/05/12 10:24:29;;;;;;;;;;;24.80;36.50;;;;;;1626837;71;695;-67
2022/05/12 10:26:41;;;;;;;;;;;24.80;36.50;;;;;;1608677;72;755;-67
2022/05/12 10:28:50;;;;;;;;;;;24.90;36.60;;;;;;1627771;72;1149;-67
2022/05/12 10:31:11;;;;;;;;;;;24.90;36.50;;;;;;1618879;71;655;-69
2022/05/12 10:33:18;;;;;;;;;;;25.00;36.40;;;;;;1620539;72;725;-67
2022/05/12 10:35:38;;;;;;;;;;;24.90;36.40;;;;;;1633752;72;1883;-68
2022/05/12 10:37:44;;;;;;;;;;;25.00;36.30;;;;;;1633792;71;1113;-66
2022/05/12 10:39:48;;;;;;;;;;;24.90;36.20;;;;;;1604275;72;1819;-68
2022/05/12 10:42:08;;;;;;;;;;;24.90;36.30;;;;;;1617320;73;1903;-68
2022/05/12 10:44:13;;;;;;;;;;;24.90;36.50;;;;;;1625539;72;626;-69
2022/05/12 10:46:17;;;;;;;;;;;24.90;36.30;;;;;;1615220;71;2012;-69
2022/05/12 10:48:20;;;;;;;;;;;24.80;36.50;;;;;;1629742;72;1169;-72
2022/05/12 10:50:26;;;;;;;;;;;25.00;36.50;;;;;;1632800;71;1917;-69
2022/05/12 10:52:39;;;;;;;;;;;24.90;36.60;;;;;;1629423;72;680;-69
2022/05/12 10:54:55;;;;;;;;;;;24.90;36.50;;;;;;1629877;72;731;-69
2022/05/12 10:56:59;;;;;;;;;;;24.90;36.60;;;;;;1633163;72;1665;-69
2022/05/12 10:59:17;;;;;;;;;;;24.80;36.60;;;;;;1630468;72;1976;-69
2022/05/12 11:01:27;;;;;;;;;;;24.90;36.70;;;;;;1621909;72;784;-69
2022/05/12 11:03:36;;;;;;;;;;;24.90;36.60;;;;;;1630165;71;1924;-70
2022/05/12 11:05:38;;;;;;;;;;;25.00;36.70;;;;;;1626788;73;742;-68
2022/05/12 11:07:45;;;;;;;;;;;24.80;36.50;;;;;;1618093;71;1160;-67
2022/05/12 11:09:48;;;;;;;;;;;24.90;36.60;;;;;;1632648;71;732;-68
2022/05/12 11:11:53;;;;;;;;;;;24.90;36.80;;;;;;1626289;72;674;-70
2022/05/12 11:13:56;;;;;;;;;;;24.80;36.80;;;;;;1634139;72;690;-70
2022/05/12 11:15:59;;;;;;;;;;;24.90;37.00;;;;;;1634117;71;906;-68
2022/05/12 11:18:07;;;;;;;;;;;24.90;37.10;;;;;;1630731;71;1157;-69
2022/05/12 11:20:25;;;;;;;;;;;24.80;37.20;;;;;;1629826;71;1043;-69
2022/05/12 11:22:28;;;;;;;;;;;24.80;37.10;;;;;;1621283;72;1962;-68
2022/05/12 11:24:47;;;;;;;;;;;24.90;37.20;;;;;;1610291;72;641;-69
2022/05/12 11:26:50;;;;;;;;;;;24.80;37.10;;;;;;1631965;72;704;-68
2022/05/12 11:31:25;;;;;;;;;;;24.90;36.90;;;;;;1622896;72;1667;-68
2022/05/12 11:33:29;;;;;;;;;;;24.90;36.90;;;;;;1629362;72;937;-68
2022/05/12 11:35:32;;;;;;;;;;;24.80;36.80;;;;;;1629783;72;1053;-68
2022/05/12 11:37:36;;;;;;;;;;;24.90;36.90;;;;;;1605607;71;1801;-68
2022/05/12 11:39:42;;;;;;;;;;;25.00;36.90;;;;;;1618697;71;688;-70
2022/05/12 11:41:44;;;;;;;;;;;24.90;36.80;;;;;;1619636;71;848;-69
2022/05/12 11:46:25;;;;;;;;;;;24.90;37.20;;;;;;1623292;71;1652;-68
2022/05/12 11:48:34;;;;;;;;;;;24.80;37.10;;;;;;1617611;72;1106;-69
2022/05/12 11:50:40;;;;;;;;;;;24.80;37.10;;;;;;1631808;71;1820;-66
2022/05/12 11:53:00;;;;;;;;;;;24.80;37.10;;;;;;1629689;72;765;-70
2022/05/12 11:55:06;;;;;;;;;;;24.90;37.30;;;;;;1618822;71;885;-69
2022/05/12 11:57:25;;;;;;;;;;;24.80;37.10;;;;;;1614066;72;2033;-68
2022/05/12 11:59:31;;;;;;;;;;;24.90;37.20;;;;;;1630398;71;729;-68
2022/05/12 12:01:40;;;;;;;;;;;24.90;37.30;;;;;;1632477;72;901;-69
2022/05/12 12:03:50;;;;;;;;;;;24.90;37.20;;;;;;1636765;71;1939;-68
2022/05/12 12:05:53;;;;;;;;;;;24.90;37.20;;;;;;1605811;72;731;-69
2022/05/12 12:07:59;;;;;;;;;;;24.90;37.30;;;;;;1632545;72;1149;-68
2022/05/12 12:10:09;;;;;;;;;;;24.90;37.40;;;;;;1633787;72;664;-68
2022/05/12 12:12:11;;;;;;;;;;;24.90;38.00;;;;;;1625455;72;707;-68
2022/05/12 12:14:15;;;;;;;;;;;24.80;38.30;;;;;;1625918;72;646;-68
2022/05/12 12:16:18;;;;;;;;;;;24.90;38.10;;;;;;1626086;71;1341;-68
2022/05/12 12:18:24;;;;;;;;;;;24.80;37.80;;;;;;1631752;71;1173;-68
2022/05/12 12:20:30;;;;;;;;;;;24.90;37.80;;;;;;1621641;71;1415;-67
2022/05/12 12:22:37;;;;;;;;;;;24.80;37.60;;;;;;1631296;72;1931;-68
2022/05/12 12:24:42;;;;;;;;;;;24.90;37.70;;;;;;1629776;71;734;-71
2022/05/12 12:26:44;;;;;;;;;;;24.80;37.80;;;;;;1633278;72;914;-68
2022/05/12 12:28:57;;;;;;;;;;;24.80;37.60;;;;;;1620864;71;1139;-68
2022/05/12 12:31:00;;;;;;;;;;;24.90;37.60;;;;;;1632889;71;646;-69
2022/05/12 12:33:16;;;;;;;;;;;24.90;37.60;;;;;;1627659;71;675;-68
2022/05/12 12:35:22;;;;;;;;;;;24.90;37.60;;;;;;1604338;72;702;-67
2022/05/12 12:37:42;;;;;;;;;;;24.90;37.50;;;;;;1626200;71;1199;-70
2022/05/12 12:39:45;;;;;;;;;;;24.80;37.70;;;;;;1622086;71;687;-68
2022/05/12 12:41:47;;;;;;;;;;;24.90;37.60;;;;;;1628606;72;755;-68